Time;durP1;ratioP1;P1;durP2;ratioP2;P2;SDS_P1;SDS_P2;PMS_P1;PMS_P2;Temp;Humidity;BMP_temperature;BMP_pressure;BME280_temperature;BME280_humidity;BME280_pressure;Samples;Min_cycle;Max_cycle;Signal;HPM_P1;HPM_P2
2023/06/01 04:13:05;;;;;;;16.07;14.87;;;13.30;99.90;;;;;;5582905;23;20531;-77
2023/06/01 04:15:32;;;;;;;16.60;15.43;;;13.40;99.90;;;;;;5024629;28;20480;-78
2023/06/01 04:17:59;;;;;;;16.67;15.20;;;13.50;99.90;;;;;;5016507;28;20791;-79
2023/06/01 04:20:26;;;;;;;16.37;15.17;;;13.60;99.90;;;;;;5017059;28;20453;-78
2023/06/01 04:22:52;;;;;;;17.50;16.20;;;13.50;99.90;;;;;;5016744;28;20468;-77
2023/06/01 04:25:20;;;;;;;17.50;16.30;;;13.60;99.90;;;;;;5016553;28;20547;-77
2023/06/01 04:27:48;;;;;;;16.20;14.63;;;13.70;99.90;;;;;;5016581;28;20463;-77
2023/06/01 04:30:16;;;;;;;16.47;15.00;;;14.00;99.90;;;;;;5016645;28;20453;-78
2023/06/01 04:32:44;;;;;;;16.50;15.50;;;14.50;99.90;;;;;;5016880;28;20876;-79
2023/06/01 04:35:11;;;;;;;16.73;15.40;;;15.10;99.90;;;;;;5016947;28;20456;-78
2023/06/01 04:37:39;;;;;;;17.57;15.67;;;15.70;99.90;;;;;;5016649;28;20460;-78
2023/06/01 04:40:08;;;;;;;17.60;15.80;;;16.20;99.90;;;;;;5016690;28;20536;-80
2023/06/01 04:42:34;;;;;;;16.47;14.93;;;16.70;99.90;;;;;;5016471;28;20472;-80
2023/06/01 04:45:04;;;;;;;16.90;14.77;;;17.00;99.90;;;;;;5016300;28;20485;-76
2023/06/01 04:47:32;;;;;;;15.97;14.50;;;17.40;99.90;;;;;;5016458;28;20897;-75
2023/06/01 04:49:59;;;;;;;17.00;15.50;;;17.80;99.90;;;;;;5016538;28;20454;-76
2023/06/01 04:52:26;;;;;;;15.90;14.93;;;18.00;99.60;;;;;;5016935;28;20454;-75
2023/06/01 04:54:52;;;;;;;17.37;15.37;;;18.40;98.50;;;;;;5014720;28;20987;-73
2023/06/01 04:57:19;;;;;;;16.47;15.10;;;18.60;98.00;;;;;;5014894;28;21151;-74
2023/06/01 04:59:46;;;;;;;16.43;14.90;;;19.00;96.90;;;;;;5015930;28;20449;-73
2023/06/01 05:02:13;;;;;;;16.70;15.30;;;19.10;96.30;;;;;;5016211;28;20454;-73
2023/06/01 05:04:41;;;;;;;17.17;15.83;;;19.10;96.00;;;;;;5012568;28;20956;-72
2023/06/01 05:07:07;;;;;;;17.60;16.40;;;19.30;96.30;;;;;;5012924;28;20584;-73
2023/06/01 05:09:34;;;;;;;18.43;17.20;;;19.70;95.40;;;;;;5012875;28;20450;-74
2023/06/01 05:12:01;;;;;;;18.50;17.00;;;20.10;94.30;;;;;;5012611;28;20476;-73
2023/06/01 05:14:28;;;;;;;18.60;16.87;;;20.10;94.20;;;;;;5012853;28;20804;-73
2023/06/01 05:16:55;;;;;;;20.47;18.73;;;20.30;93.80;;;;;;5012999;28;20473;-75
2023/06/01 05:19:22;;;;;;;20.70;18.80;;;20.40;93.50;;;;;;5010559;28;20458;-73
2023/06/01 05:21:50;;;;;;;16.97;15.77;;;20.50;93.20;;;;;;5013688;28;21018;-73
2023/06/01 05:24:16;;;;;;;18.60;17.10;;;20.70;92.70;;;;;;5031794;28;20445;-73
2023/06/01 05:26:43;;;;;;;17.97;16.67;;;20.80;92.40;;;;;;5031858;28;20484;-73
2023/06/01 05:29:10;;;;;;;18.00;16.90;;;21.10;91.90;;;;;;5029702;28;20460;-73
2023/06/01 05:31:37;;;;;;;17.30;15.80;;;21.40;90.70;;;;;;5031408;28;20453;-75
2023/06/01 05:34:03;;;;;;;18.53;16.90;;;21.60;90.50;;;;;;5031331;28;20449;-75
2023/06/01 05:36:31;;;;;;;18.03;16.63;;;21.80;90.10;;;;;;5031559;28;20465;-74
2023/06/01 05:38:59;;;;;;;15.70;14.80;;;22.30;88.50;;;;;;5031970;28;20471;-73
2023/06/01 05:41:27;;;;;;;17.13;16.13;;;22.50;86.50;;;;;;5030293;28;20452;-74
2023/06/01 05:43:54;;;;;;;16.57;15.57;;;22.90;85.60;;;;;;5031415;28;20453;-74
2023/06/01 05:46:20;;;;;;;17.47;16.47;;;23.30;83.50;;;;;;5031222;28;20489;-74
2023/06/01 05:48:47;;;;;;;18.43;17.07;;;23.60;82.20;;;;;;5031219;28;20476;-74
2023/06/01 05:51:14;;;;;;;16.17;15.20;;;23.90;81.30;;;;;;5031325;28;20811;-73
2023/06/01 05:53:42;;;;;;;16.40;15.40;;;23.80;79.40;;;;;;5031548;28;20965;-74
2023/06/01 05:56:10;;;;;;;15.30;14.50;;;24.60;78.40;;;;;;5030862;28;20802;-76
2023/06/01 05:58:36;;;;;;;16.33;15.23;;;24.70;77.00;;;;;;5030822;28;21000;-76
2023/06/01 06:01:03;;;;;;;15.50;14.40;;;24.60;76.00;;;;;;5030383;28;20855;-76
2023/06/01 06:03:30;;;;;;;16.30;14.67;;;24.30;74.50;;;;;;5030731;28;20479;-75
2023/06/01 06:05:57;;;;;;;16.97;15.70;;;23.90;76.00;;;;;;5031407;28;20892;-74
2023/06/01 06:08:23;;;;;;;15.50;14.03;;;23.90;75.20;;;;;;5031280;28;20460;-74
2023/06/01 06:10:50;;;;;;;14.57;13.57;;;23.50;75.30;;;;;;5031005;28;20472;-75
2023/06/01 06:13:18;;;;;;;14.43;13.53;;;23.90;74.70;;;;;;5030744;28;20495;-75
2023/06/01 06:15:45;;;;;;;14.70;13.90;;;24.10;73.60;;;;;;5030813;28;20453;-76
2023/06/01 06:18:12;;;;;;;14.77;13.70;;;24.30;72.80;;;;;;5031529;28;20457;-76
2023/06/01 06:20:38;;;;;;;15.00;14.20;;;24.60;72.20;;;;;;5030902;28;20821;-75
2023/06/01 06:23:05;;;;;;;14.77;13.87;;;24.80;70.80;;;;;;5030731;28;20959;-76
2023/06/01 06:25:32;;;;;;;15.43;14.53;;;25.10;69.80;;;;;;5030571;28;20861;-75
2023/06/01 06:27:58;;;;;;;15.20;14.40;;;25.50;67.70;;;;;;5030450;28;20453;-75
2023/06/01 06:30:27;;;;;;;14.83;14.03;;;25.30;67.20;;;;;;5030870;28;20464;-76
2023/06/01 06:32:53;;;;;;;15.57;14.77;;;26.00;65.00;;;;;;5030709;28;20464;-76
2023/06/01 06:35:20;;;;;;;14.20;13.27;;;25.90;64.30;;;;;;5030959;28;20450;-80
2023/06/01 06:37:47;;;;;;;15.27;14.37;;;25.90;64.90;;;;;;5030489;28;20826;-75
2023/06/01 06:40:13;;;;;;;16.10;15.10;;;26.10;62.80;;;;;;5030769;28;20456;-75
2023/06/01 06:42:41;;;;;;;14.23;13.43;;;26.50;63.30;;;;;;5030015;28;20529;-75
